• Join FlightAware (Why Join?)
  • Login
  • US Flag 
12:05AM EDT


 

Airport Tracker/Info


-or-


 

Live Flight TrackerFlight Track Log ✈ UCA5001 ✈ 03-May-2013 ✈ KIAD - KROA

Flight Track Log - Related Links

Times and Time Zones

All times are in EDT time to prevent confusion due to time zone crossing. See the UCA5001 flight status page for this flight to view local times or setup timezone preferences in your user account.

Time Position Orientation Groundspeed Altitude Reporting Facility
EDT Latitude Longitude Course Direction KTS MPH feet Rate Location/Type
03:42PM 38.8833 -77.5000 235° Southwest 183 211 3,000  Level Potomac TRACON
03:43PM 38.8500 -77.5333 218° Southwest 193 222 4,600 1,560 Climbing Potomac TRACON
03:44PM 38.8167 -77.5833 229° Southwest 197 227 6,200 1,440 Climbing Potomac TRACON
03:44PM 38.7833 -77.6500 237° Southwest 213 245 7,400 1,380 Climbing Potomac TRACON
03:45PM 38.7159 -77.7542 223° Southwest  Level FlightAware Approximate
03:46PM 38.6675 -77.8123 223° Southwest  Level FlightAware Approximate
03:46PM 38.7333 -77.7167 226° Southwest 218 251 9,100  Level Potomac TRACON
03:47PM 38.6211 -77.8722 235° Southwest  Level FlightAware Approximate
03:47PM 38.7333 -77.7833 270° West 231 266 9,900  Level Potomac TRACON
03:47PM 38.7278 -77.8350 262° West 253 291 10,000 480 Climbing Washington Center
03:48PM 38.6906 -77.9322 244° Southwest 271 312 10,700 960 Climbing Washington Center
03:49PM 38.6456 -77.9839 222° Southwest 258 297 12,000 900 Climbing Washington Center
03:50PM 38.5942 -78.0514 226° Southwest 258 297 12,600 900 Climbing Washington Center
03:51PM 38.5472 -78.1108 225° Southwest 258 297 13,900 660 Climbing Washington Center
03:52PM 38.4978 -78.1756 226° Southwest 258 297 14,000  Climbing Washington Center
03:53PM 38.4419 -78.2478 225° Southwest 269 310 14,000  Level Washington Center
03:54PM 38.3861 -78.3200 225° Southwest 275 316 14,000  Level Washington Center
03:55PM 38.3325 -78.3894 225° Southwest 275 316 14,000  Level Washington Center
03:56PM 38.2847 -78.4669 232° Southwest 281 323 14,000 -300 Level Washington Center
03:57PM 38.2389 -78.5525 236° Southwest 287 330 13,400 -600 Descending Washington Center
03:58PM 38.1889 -78.6353 232° Southwest 292 336 12,900 -540 Descending Washington Center
03:59PM 38.1408 -78.7178 233° Southwest 298 343 12,400 -480 Descending Washington Center
04:00PM 38.0908 -78.8000 232° Southwest 298 343 12,000 -480 Descending Washington Center
04:01PM 38.0472 -78.8719 232° Southwest 298 343 11,500 -540 Descending Washington Center
04:02PM 37.9989 -78.9517 232° Southwest 293 337 11,000 -300 Descending Washington Center
04:03PM 37.9508 -79.0311 233° Southwest 293 337 11,000  Level Washington Center
04:04PM 37.9028 -79.1078 232° Southwest 293 337 11,000  Level Washington Center
04:05PM 37.8503 -79.1869 230° Southwest 293 337 11,000  Level Washington Center
04:06PM 37.8022 -79.2636 232° Southwest 288 331 11,000  Level Washington Center
04:07PM 37.7542 -79.3347 229° Southwest 283 326 11,000  Level Washington Center
04:08PM 37.7039 -79.4058 228° Southwest 278 320 11,000 -240 Level Washington Center
04:09PM 37.6575 -79.4819 232° Southwest 278 320 10,600 -660 Descending Washington Center
04:10PM 37.6094 -79.5478 227° Southwest 273 314 9,700 -1,140 Descending Washington Center
04:11PM 37.5633 -79.6186 231° Southwest 268 308 8,300 -1,320 Descending Washington Center
04:12PM 37.5172 -79.6869 230° Southwest 268 308 7,100 -1,200 Descending Washington Center
04:13PM 37.4831 -79.7689 242° Southwest 262 302 6,000 -720 Descending Washington Center
04:14PM 37.4678 -79.8467 256° West 252 290 5,700 -420 Descending Washington Center
04:15PM 37.4503 -79.9267 255° West 257 296 5,200 -300 Descending Washington Center
04:16PM 37.4328 -80.0067 255° West 257 296 5,200  Level Washington Center
04:17PM 37.3944 -80.0881 239° Southwest 251 289 5,200  Level Washington Center
04:19PM 37.3365 -79.9934 218° Southwest  Level Estimated